DUGK1: Little Walnut Rvr nr Bois d'Arc KS

Data processed at Fri May 18 2018 23:49


All information presented herein is the property of the government of the United States of America and may be revised or deleted at any time without prior notice.
Dissemination of this information without the expressed written consent of the Public Affairs Office, Tulsa District U.S. Army Corps of Engineers is strictly prohibited.
These data are gathered electronically and, as presented, have not undergone any form of quality control. These data are not guaranteed to be valid or correct.
Go to home page.
Go to station list.

Downstream station:


Previous Day
Next Day
Current Day
    
SHEF ID:       DUGK1     Little Walnut Rvr nr Bois d'Arc
STATION TYPE:  

               PRECIP     STAGE  RIV-FLOW   VOLTAGE  BAT-LOAD
                   in        ft       cfs      volt      volt
              Ccp-Rev   Ccp-Rev   Ccp-Rev   Ccp-Rev   Ccp-Rev
(US/Central)
05/16 00:00      0.00      8.53       387     12.97     12.89
05/16 01:00      0.00      8.45       361     12.97     12.81
05/16 02:00      0.00      8.39       342     12.97     12.81
05/16 03:00      0.00      8.31       319     12.89     12.81
05/16 04:00      0.00      8.23       296     12.89     12.81
05/16 05:00      0.00      8.18       283     12.89     12.73
05/16 06:00      0.00      8.13       271     12.89     12.73
05/16 07:00      0.00      8.08       258     12.89     12.73
05/16 08:00      0.00      8.02       244     12.97     12.89
05/16 09:00      0.00      7.99       238     13.53     13.44
05/16 10:00      0.00      7.95       229     13.68     13.29
05/16 11:00      0.00      7.91       220     13.37     13.29
05/16 12:00      0.00      7.89       216     13.53     13.29
05/16 13:00      0.00      7.85       208     13.53     13.29
05/16 14:00      0.00      7.82       202     13.44     13.37
05/16 15:00      0.00      7.79       197     13.76     13.29
05/16 16:00      0.00      7.77       193     13.37     13.29
05/16 17:00      0.00      7.75       189     13.37     13.29
05/16 18:00      0.00      7.72       184     13.37     13.29
05/16 19:00      0.00      7.70       180     13.21     13.13
05/16 20:00      0.00      7.68       177     13.05     12.97
05/16 21:00      0.00      7.66       173     13.05     12.97
05/16 22:00      0.00      7.64       170     13.05     12.89
05/16 23:00      0.00      7.62       167     13.05     12.89